Mauston, WI (53948)

02:30 AM CST die 05o December, anno 2016 (GMT -0600)
Juneau County Weather | | Change Station

Elev 873 ft 43.80 °N, 90.07 °W | Updated 41 seconds ago

Overcast
Aequaliter Nubila
34.1 °F
Feels Like 28 °F
N
7.6
Ventus Variabilis Ventus from Inter Austrum et Zephyrum
Gusts 20.7 mph

Hodie
High -- | Low -- °F
--% Chance of Precip.
Yesterday
High -- | Low -- °F
Precip. -- in
Pressio 29.86 in
Visibilitas 10.0 milia passuum
Clouds Aequaliter Nubila 1100 ft
Frigus Venti 28 °F
Frigus in quo Ros apparet 33 °F
Umor 96%
Rainfall 0.00 in
Snow Depth Not available.
7:19 AM 4:23 PM
Waxing Crescent, 29% visible
SPECI KVOK 050818Z AUTO 24009KT 10SM OVC011 01/00 A2986 RMK AO2
Pressio 29.86 in
Visibilitas 10.0 milia passuum
Clouds Aequaliter Nubila 1100 ft
Frigus Venti 28 °F
Frigus in quo Ros apparet 33 °F
Umor 96%
Rainfall 0.00 in
Snow Depth Not available.
7:19 AM 4:23 PM
Waxing Crescent, 29% visible
SPECI KVOK 050818Z AUTO 24009KT 10SM OVC011 01/00 A2986 RMK AO2

10-Day Weather Forecast

Almanac

Astronomy

Dec. 05, 2016 Rise Set
Actual Time
Civil Twilight
Nautical Twilight
Astronomical Twilight
Moon
Length Of Visible Light
Length of Day
Tomorrow will be .
, % of the Moon is Illuminated

Today's Extremes

State Highs State Lows

Community

WunderPhotos

Upload Photos

1,955,771 photos uploaded!

WunderBlog® & News

Nearby

Air Quality

  Air Quality AQ Index Pollutant
Not available.

Snow Depth

Station Depth Elevation

Earthquake Activity

City Distance Mag. Time & Date
Minimum magnitude displayed is 2.5.

Coastal Water Temperatures

Locus Calor

Stations

Nearby Weather Stations

Station Location Temp Frigus Venti Frigus in quo Ros apparet Umor Ventus Precip. Elev Renovata Type
                   

Watches & Warnings

There are currently no watches in effect.